Time;durP1;ratioP1;P1;durP2;ratioP2;P2;SDS_P1;SDS_P2;PMS_P1;PMS_P2;Temp;Humidity;BMP_temperature;BMP_pressure;BME280_temperature;BME280_humidity;BME280_pressure;Samples;Min_cycle;Max_cycle;Signal;HPM_P1;HPM_P2
2021/11/01 00:00:48;;;;;;;11.60;6.80;;;11.00;99.90;;;;;;5040887;28;20407;-71
2021/11/01 00:03:14;;;;;;;9.97;7.90;;;10.90;99.90;;;;;;5043356;28;20406;-71
2021/11/01 00:05:39;;;;;;;9.53;7.60;;;10.90;99.90;;;;;;5040243;28;20409;-71
2021/11/01 00:08:06;;;;;;;8.20;6.57;;;10.90;99.90;;;;;;5043676;28;20427;-71
2021/11/01 00:10:31;;;;;;;11.83;6.83;;;10.80;99.90;;;;;;5042478;28;20179;-70
2021/11/01 00:13:01;;;;;;;8.63;6.40;;;10.80;99.90;;;;;;5044420;28;20410;-70
2021/11/01 00:15:33;;;;;;;7.80;6.13;;;10.80;99.90;;;;;;5035926;28;20263;-71
2021/11/01 00:17:58;;;;;;;9.00;6.47;;;10.80;99.90;;;;;;5033664;28;20454;-71
2021/11/01 00:20:25;;;;;;;10.23;6.47;;;10.70;99.90;;;;;;5032833;28;20405;-71
2021/11/01 00:22:52;;;;;;;9.37;7.50;;;10.70;99.90;;;;;;5034563;28;20246;-71
2021/11/01 00:25:18;;;;;;;9.70;7.63;;;10.70;99.90;;;;;;5034646;28;20928;-70
2021/11/01 00:27:44;;;;;;;9.87;7.40;;;10.70;99.90;;;;;;5033540;28;20430;-70
2021/11/01 00:30:11;;;;;;;10.23;7.33;;;10.70;99.90;;;;;;5032350;28;20422;-70
2021/11/01 00:32:38;;;;;;;10.00;7.90;;;10.70;99.90;;;;;;5034602;28;20430;-70
2021/11/01 00:35:05;;;;;;;10.47;6.30;;;10.60;99.90;;;;;;5033616;28;20467;-70
2021/11/01 00:37:30;;;;;;;10.47;8.47;;;10.60;99.90;;;;;;5033344;28;20838;-70
2021/11/01 00:39:58;;;;;;;12.33;8.27;;;10.60;99.90;;;;;;5033647;28;20517;-70
2021/11/01 00:42:24;;;;;;;10.97;7.77;;;10.50;99.90;;;;;;5033809;28;20756;-71
2021/11/01 00:44:50;;;;;;;10.27;8.37;;;10.50;99.90;;;;;;5033008;28;20414;-71
2021/11/01 00:47:18;;;;;;;9.07;7.93;;;10.50;99.90;;;;;;5033576;28;20416;-71
2021/11/01 00:49:47;;;;;;;9.17;6.20;;;10.40;99.90;;;;;;5033223;28;20175;-71
2021/11/01 00:52:13;;;;;;;10.00;7.27;;;10.40;99.90;;;;;;5033395;28;20456;-70
2021/11/01 00:54:39;;;;;;;12.77;8.50;;;10.40;99.90;;;;;;5033259;28;20414;-70
2021/11/01 00:57:05;;;;;;;11.93;8.20;;;10.40;99.90;;;;;;5033252;28;20178;-69
2021/11/01 00:59:31;;;;;;;8.60;7.70;;;10.40;99.90;;;;;;5033216;28;20428;-69
2021/11/01 01:01:56;;;;;;;10.70;7.17;;;10.40;99.90;;;;;;5033277;28;20206;-70
2021/11/01 01:04:24;;;;;;;10.33;6.37;;;10.30;99.90;;;;;;5032713;28;20171;-70
2021/11/01 01:06:50;;;;;;;9.27;7.30;;;10.30;99.90;;;;;;5032187;28;20572;-71
2021/11/01 01:09:16;;;;;;;13.63;8.67;;;10.30;99.90;;;;;;5032955;28;20437;-71
2021/11/01 01:11:42;;;;;;;13.00;6.83;;;10.30;99.90;;;;;;5033111;28;20418;-70
2021/11/01 01:14:07;;;;;;;9.47;6.30;;;10.30;99.90;;;;;;5031911;28;20409;-71
2021/11/01 01:16:40;;;;;;;10.20;7.70;;;10.30;99.90;;;;;;5032462;28;20194;-71
2021/11/01 01:19:14;;;;;;;8.63;6.03;;;10.30;99.90;;;;;;5032760;28;20209;-70
2021/11/01 01:24:24;;;;;;;10.63;7.00;;;10.20;99.90;;;;;;5032733;28;20406;-71
2021/11/01 01:26:49;;;;;;;8.90;7.87;;;10.20;99.90;;;;;;5032272;28;20407;-72
2021/11/01 01:29:15;;;;;;;8.60;5.73;;;10.20;99.90;;;;;;5032545;28;20238;-71
2021/11/01 01:31:41;;;;;;;9.07;6.80;;;10.10;99.90;;;;;;5032222;28;20242;-71
2021/11/01 01:34:07;;;;;;;9.57;7.60;;;10.10;99.90;;;;;;5031311;28;20184;-71
2021/11/01 01:36:33;;;;;;;11.60;7.20;;;10.10;99.90;;;;;;5032106;28;20420;-71
2021/11/01 01:38:58;;;;;;;8.70;6.53;;;10.00;99.90;;;;;;5032437;28;20257;-72
2021/11/01 01:41:27;;;;;;;10.13;7.20;;;10.00;99.90;;;;;;5032844;28;20249;-70
2021/11/01 01:43:57;;;;;;;11.20;6.67;;;10.00;99.90;;;;;;5032631;28;20156;-71
2021/11/01 01:46:24;;;;;;;11.53;7.77;;;10.00;99.90;;;;;;5031106;28;20464;-71
2021/11/01 01:48:52;;;;;;;11.67;7.67;;;10.00;99.90;;;;;;5031950;28;20505;-70
2021/11/01 01:51:24;;;;;;;8.17;6.43;;;10.00;99.90;;;;;;5031882;28;20491;-71
2021/11/01 01:53:50;;;;;;;9.90;7.33;;;10.00;99.90;;;;;;5032363;28;20417;-71
2021/11/01 01:56:16;;;;;;;12.10;7.87;;;10.00;99.90;;;;;;5032758;28;20501;-73
2021/11/01 01:58:48;;;;;;;12.00;7.80;;;9.90;99.90;;;;;;5032264;28;20521;-70
2021/11/01 02:01:17;;;;;;;10.27;6.67;;;9.90;99.90;;;;;;5030697;28;20219;-71
2021/11/01 02:03:53;;;;;;;9.30;7.00;;;9.90;99.90;;;;;;5031918;28;20481;-71
2021/11/01 02:06:53;;;;;;;11.63;8.27;;;9.90;99.90;;;;;;5031693;28;20407;-71
2021/11/01 02:09:30;;;;;;;11.30;7.47;;;9.90;99.90;;;;;;5031254;28;20444;-71
2021/11/01 02:12:22;;;;;;;7.60;6.57;;;10.00;99.90;;;;;;5032236;28;20420;-71
2021/11/01 02:14:56;;;;;;;11.40;7.20;;;9.90;99.90;;;;;;5031917;28;20460;-72
2021/11/01 02:17:35;;;;;;;10.53;6.50;;;9.90;99.90;;;;;;5031552;28;20436;-71
2021/11/01 02:20:09;;;;;;;9.90;7.40;;;9.90;99.90;;;;;;5014474;28;20433;-71
2021/11/01 02:22:41;;;;;;;11.73;7.23;;;9.90;99.90;;;;;;5030452;28;20993;-72
2021/11/01 02:25:31;;;;;;;10.30;7.00;;;9.90;99.90;;;;;;5014680;28;20406;-71
2021/11/01 02:27:57;;;;;;;11.10;7.40;;;10.00;99.90;;;;;;5030747;28;20425;-71
2021/11/01 02:30:23;;;;;;;12.20;6.83;;;9.90;99.90;;;;;;5029722;28;20784;-72
2021/11/01 02:32:50;;;;;;;9.97;7.63;;;9.90;99.90;;;;;;5032056;28;20254;-70
2021/11/01 02:35:16;;;;;;;12.53;8.17;;;10.00;99.90;;;;;;5030680;28;20191;-71
2021/11/01 02:37:45;;;;;;;11.23;7.00;;;9.90;99.90;;;;;;5032220;28;20430;-71
2021/11/01 02:40:11;;;;;;;10.20;6.13;;;9.90;99.90;;;;;;5031937;28;20421;-71
2021/11/01 02:42:37;;;;;;;8.67;6.60;;;9.90;99.90;;;;;;5032210;28;21067;-71
2021/11/01 02:45:08;;;;;;;11.43;7.83;;;9.90;99.90;;;;;;5028401;28;20237;-70
2021/11/01 02:47:55;;;;;;;11.00;7.23;;;9.90;99.90;;;;;;5031834;28;20410;-71
2021/11/01 02:50:24;;;;;;;12.37;8.33;;;9.90;99.90;;;;;;5030944;28;20411;-72
2021/11/01 02:52:49;;;;;;;10.70;6.67;;;9.90;99.90;;;;;;5032215;28;20912;-70
2021/11/01 02:55:16;;;;;;;7.50;6.10;;;9.80;99.90;;;;;;5031948;28;20492;-71
2021/11/01 02:57:42;;;;;;;10.33;8.40;;;9.80;99.90;;;;;;5032005;28;20194;-71
2021/11/01 03:00:10;;;;;;;11.30;7.03;;;9.80;99.90;;;;;;5031973;28;20444;-71
2021/11/01 03:02:39;;;;;;;11.83;9.00;;;9.80;99.90;;;;;;5031519;28;20461;-71
2021/11/01 03:05:09;;;;;;;8.73;7.83;;;9.80;99.90;;;;;;5031622;28;20862;-71
2021/11/01 03:07:37;;;;;;;14.70;8.27;;;9.80;99.90;;;;;;5029837;28;20457;-72
2021/11/01 03:10:05;;;;;;;10.53;7.37;;;9.70;99.90;;;;;;5031807;28;20419;-70
2021/11/01 03:12:31;;;;;;;11.13;7.10;;;9.70;99.90;;;;;;5031286;28;20416;-71
2021/11/01 03:15:02;;;;;;;11.53;8.83;;;9.70;99.90;;;;;;5031808;28;20944;-71
2021/11/01 03:17:32;;;;;;;10.10;7.23;;;9.70;99.90;;;;;;5030920;28;20430;-71
2021/11/01 03:20:12;;;;;;;11.53;7.17;;;9.70;99.90;;;;;;5031603;28;20432;-72
2021/11/01 03:22:41;;;;;;;10.13;6.80;;;9.70;99.90;;;;;;5030218;28;20870;-71
2021/11/01 03:25:26;;;;;;;11.20;7.13;;;9.60;99.90;;;;;;5031509;28;20476;-71
2021/11/01 03:28:02;;;;;;;14.27;7.80;;;9.60;99.90;;;;;;5031709;28;20422;-71
2021/11/01 03:30:30;;;;;;;10.83;6.83;;;9.60;99.90;;;;;;5031185;28;20400;-71
2021/11/01 03:33:03;;;;;;;11.07;7.80;;;9.60;99.90;;;;;;5034921;28;20411;-70
2021/11/01 03:35:35;;;;;;;12.40;6.57;;;9.60;99.90;;;;;;5035210;28;20511;-70
2021/11/01 03:38:01;;;;;;;9.40;8.40;;;9.60;99.90;;;;;;5017686;28;20434;-70
2021/11/01 03:40:32;;;;;;;11.10;8.10;;;9.60;99.90;;;;;;5034875;28;21209;-71
2021/11/01 03:43:06;;;;;;;8.93;6.30;;;9.60;99.90;;;;;;5034858;28;20543;-70
2021/11/01 03:45:34;;;;;;;10.13;7.40;;;9.60;99.90;;;;;;5033838;28;20408;-71
2021/11/01 03:48:05;;;;;;;9.10;6.90;;;9.60;99.90;;;;;;5034799;28;20498;-70
2021/11/01 03:50:45;;;;;;;9.43;7.37;;;9.60;99.90;;;;;;5034797;28;20411;-70
2021/11/01 03:53:11;;;;;;;10.60;7.13;;;9.60;99.90;;;;;;5033552;28;20754;-71
2021/11/01 03:55:37;;;;;;;15.20;8.30;;;9.60;99.90;;;;;;5033095;28;20420;-71
2021/11/01 03:58:08;;;;;;;12.17;8.50;;;9.50;99.90;;;;;;5034140;28;20418;-70
2021/11/01 04:00:35;;;;;;;10.93;8.00;;;9.50;99.90;;;;;;5033397;28;20777;-71
2021/11/01 04:03:02;;;;;;;13.83;7.90;;;9.50;99.90;;;;;;5033747;28;20461;-71
2021/11/01 04:05:28;;;;;;;11.07;7.93;;;9.50;99.90;;;;;;5016657;28;20413;-71
2021/11/01 04:07:54;;;;;;;7.20;6.27;;;9.50;99.90;;;;;;5034447;28;20482;-71
2021/11/01 04:10:51;;;;;;;10.03;7.47;;;9.50;99.90;;;;;;5034410;28;20418;-72
2021/11/01 04:13:17;;;;;;;13.63;9.10;;;9.40;99.90;;;;;;5034474;28;20417;-70
2021/11/01 04:15:53;;;;;;;11.07;6.73;;;9.40;99.90;;;;;;5034964;28;20844;-70
2021/11/01 04:18:26;;;;;;;9.73;7.00;;;9.50;99.90;;;;;;5034535;28;20215;-70
2021/11/01 04:20:53;;;;;;;12.83;8.80;;;9.40;99.90;;;;;;5034405;28;20440;-70
2021/11/01 04:23:23;;;;;;;11.33;6.50;;;9.50;99.90;;;;;;5039243;28;20417;-70
2021/11/01 04:25:49;;;;;;;10.33;7.20;;;9.40;99.90;;;;;;5039389;28;20414;-69
2021/11/01 04:28:14;;;;;;;13.00;8.47;;;9.40;99.90;;;;;;5041680;28;20454;-71
2021/11/01 04:30:42;;;;;;;11.23;7.80;;;9.50;99.90;;;;;;5042722;28;20170;-70
2021/11/01 04:33:12;;;;;;;10.20;7.40;;;9.50;99.90;;;;;;5038895;28;20169;-70
2021/11/01 04:35:39;;;;;;;11.30;7.90;;;9.50;99.90;;;;;;5040889;28;20410;-70
2021/11/01 04:43:45;;;;;;;10.90;7.43;;;9.40;99.90;;;;;;5033451;28;20804;-71
2021/11/01 04:52:56;;;;;;;10.67;6.87;;;9.50;99.90;;;;;;5032692;28;20420;-71
2021/11/01 04:54:36;;;;;;;12.93;8.30;;;9.40;99.90;;;;;;5032157;28;20430;-71
2021/11/01 04:57:03;;;;;;;14.47;8.37;;;9.40;99.90;;;;;;5031760;28;20420;-71
2021/11/01 04:59:29;;;;;;;11.20;7.67;;;9.40;99.90;;;;;;5033432;28;20270;-70
2021/11/01 05:01:55;;;;;;;11.33;7.53;;;9.40;99.90;;;;;;5033313;28;20529;-71
2021/11/01 05:04:27;;;;;;;10.57;8.80;;;9.40;99.90;;;;;;5032600;28;20170;-71
2021/11/01 05:06:56;;;;;;;19.77;9.60;;;9.30;99.90;;;;;;5032929;28;20741;-71
2021/11/01 05:09:38;;;;;;;14.87;8.47;;;9.30;99.90;;;;;;5031167;28;20454;-71
2021/11/01 05:12:24;;;;;;;12.80;8.33;;;9.30;99.90;;;;;;5033314;28;20910;-71
2021/11/01 05:14:58;;;;;;;13.90;8.13;;;9.30;99.90;;;;;;5033057;28;20403;-71
2021/11/01 05:17:41;;;;;;;12.53;7.83;;;9.30;99.90;;;;;;5030872;28;20538;-71
2021/11/01 05:20:17;;;;;;;14.60;7.80;;;9.30;99.90;;;;;;5032632;28;20419;-71
2021/11/01 05:22:54;;;;;;;11.00;7.70;;;9.30;99.90;;;;;;5033190;28;20465;-71
2021/11/01 05:35:41;;;;;;;18.80;9.27;;;9.40;99.90;;;;;;5010861;28;20279;-71
2021/11/01 05:38:08;;;;;;;16.20;9.40;;;9.50;99.90;;;;;;5032414;28;20466;-69
2021/11/01 05:40:35;;;;;;;7.77;7.00;;;9.50;99.90;;;;;;5032423;28;20258;-69
2021/11/01 05:43:02;;;;;;;17.10;9.93;;;9.60;99.90;;;;;;5032329;28;20462;-71
2021/11/01 05:45:28;;;;;;;11.67;8.40;;;9.60;99.90;;;;;;5032119;28;20404;-69
2021/11/01 05:47:57;;;;;;;11.20;7.10;;;9.60;99.90;;;;;;5032362;28;20424;-71
2021/11/01 05:50:25;;;;;;;9.73;7.40;;;9.70;99.90;;;;;;5032120;28;20429;-70
2021/11/01 05:52:51;;;;;;;11.67;8.73;;;9.70;99.90;;;;;;5032261;28;20417;-71
2021/11/01 05:58:12;;;;;;;10.83;8.23;;;9.70;99.90;;;;;;5032267;28;20446;-71
2021/11/01 06:05:58;;;;;;;16.70;9.10;;;9.90;99.90;;;;;;5031899;28;20431;-71
2021/11/01 06:08:38;;;;;;;13.93;8.90;;;9.90;99.90;;;;;;5023917;28;20199;-70
2021/11/01 06:13:47;;;;;;;15.00;7.40;;;10.00;99.90;;;;;;5032254;28;20460;-71
2021/11/01 06:16:13;;;;;;;11.60;8.23;;;10.00;99.90;;;;;;5028663;28;20400;-71
2021/11/01 06:18:40;;;;;;;12.27;7.80;;;10.00;99.90;;;;;;5032023;28;20218;-71
2021/11/01 06:21:08;;;;;;;11.83;8.27;;;10.00;99.90;;;;;;5032391;28;20283;-71
2021/11/01 06:23:35;;;;;;;18.37;9.37;;;10.00;99.90;;;;;;5028497;28;20414;-71
2021/11/01 06:26:02;;;;;;;12.90;8.40;;;10.10;99.90;;;;;;5032754;28;20484;-70
2021/11/01 06:28:28;;;;;;;12.40;8.40;;;10.10;99.90;;;;;;5032003;28;20482;-70
2021/11/01 06:30:58;;;;;;;10.83;7.70;;;10.10;99.90;;;;;;5032229;28;20407;-71
2021/11/01 06:44:26;;;;;;;13.70;8.50;;;10.20;99.90;;;;;;5031121;28;20476;-73
2021/11/01 06:49:54;;;;;;;11.93;8.20;;;10.40;99.90;;;;;;5032098;28;20440;-70
2021/11/01 06:55:17;;;;;;;15.60;8.40;;;10.40;99.90;;;;;;5012336;28;20789;-70
2021/11/01 06:58:10;;;;;;;12.63;8.73;;;10.40;99.90;;;;;;5012036;28;20793;-70
2021/11/01 07:14:29;;;;;;;11.40;7.80;;;11.00;99.90;;;;;;5035160;28;20482;-69
2021/11/01 07:16:59;;;;;;;10.70;7.50;;;11.10;99.90;;;;;;5029591;28;20424;-70
2021/11/01 07:20:13;;;;;;;17.67;11.43;;;11.10;99.90;;;;;;5035037;28;20598;-69
2021/11/01 07:22:55;;;;;;;11.87;8.00;;;11.10;99.90;;;;;;5036976;28;20466;-70
2021/11/01 07:25:54;;;;;;;11.33;7.67;;;11.20;99.90;;;;;;5034702;28;20406;-70
2021/11/01 07:38:06;;;;;;;13.77;8.10;;;11.30;99.90;;;;;;5034787;28;20444;-70
2021/11/01 08:17:38;;;;;;;14.40;8.70;;;11.60;99.90;;;;;;5034432;28;20425;-71
2021/11/01 08:23:08;;;;;;;11.90;8.97;;;11.80;99.90;;;;;;5033788;28;20457;-70
2021/11/01 08:25:51;;;;;;;11.10;7.53;;;11.80;99.90;;;;;;5033735;28;20411;-70
2021/11/01 08:36:45;;;;;;;13.10;8.03;;;11.90;99.90;;;;;;5033908;28;20414;-70
2021/11/01 08:50:10;;;;;;;10.30;7.80;;;12.30;99.90;;;;;;5033456;28;20566;-69
2021/11/01 09:01:20;;;;;;;15.03;9.97;;;12.30;99.90;;;;;;5025409;28;20407;-69
2021/11/01 09:03:54;;;;;;;17.87;11.97;;;12.40;99.90;;;;;;5033161;28;20461;-69
2021/11/01 09:20:15;;;;;;;12.90;9.97;;;12.60;99.90;;;;;;5032840;28;20460;-71
2021/11/01 09:23:05;;;;;;;10.00;8.30;;;12.60;99.90;;;;;;5032579;28;20474;-70
2021/11/01 09:28:20;;;;;;;8.47;6.60;;;12.70;99.90;;;;;;5032145;28;20949;-71
2021/11/01 09:36:23;;;;;;;9.13;7.40;;;12.70;99.90;;;;;;5032946;28;20948;-71
2021/11/01 09:39:28;;;;;;;10.97;7.57;;;12.80;99.90;;;;;;5032796;28;20434;-71
2021/11/01 09:41:48;;;;;;;14.43;7.00;;;12.80;99.90;;;;;;5032095;28;20829;-71
2021/11/01 09:44:21;;;;;;;11.27;8.43;;;12.90;99.90;;;;;;5032463;28;20410;-71
2021/11/01 09:46:47;;;;;;;9.20;7.33;;;12.90;99.90;;;;;;5032391;28;20406;-71
2021/11/01 09:49:16;;;;;;;12.77;7.50;;;13.10;99.90;;;;;;5032173;28;20430;-71
2021/11/01 09:51:44;;;;;;;11.40;8.37;;;13.00;99.90;;;;;;5032089;28;20179;-71
2021/11/01 09:54:19;;;;;;;12.87;8.30;;;13.10;99.90;;;;;;5032302;28;20417;-71
2021/11/01 09:59:18;;;;;;;12.03;8.20;;;13.10;99.90;;;;;;5032206;28;20433;-71
2021/11/01 10:01:45;;;;;;;9.87;6.80;;;13.20;99.90;;;;;;5030741;28;20460;-71
2021/11/01 10:04:20;;;;;;;12.03;9.33;;;13.20;99.90;;;;;;5031905;28;20901;-72
2021/11/01 10:07:18;;;;;;;10.97;7.53;;;13.20;99.90;;;;;;5032285;28;20831;-71
2021/11/01 10:10:02;;;;;;;11.50;6.83;;;13.10;99.90;;;;;;5014551;28;20474;-71
2021/11/01 10:12:33;;;;;;;14.30;7.53;;;13.30;99.90;;;;;;5024857;28;20509;-71
2021/11/01 10:18:03;;;;;;;11.33;6.87;;;13.40;99.90;;;;;;5027560;28;20508;-71
2021/11/01 10:20:31;;;;;;;13.23;8.53;;;13.40;99.90;;;;;;5012182;28;20430;-72
2021/11/01 10:22:57;;;;;;;9.37;6.43;;;13.10;99.90;;;;;;5012050;28;20486;-71
2021/11/01 10:25:24;;;;;;;10.17;7.90;;;13.20;99.90;;;;;;5023684;28;20777;-72
2021/11/01 10:27:58;;;;;;;11.33;7.47;;;13.30;99.90;;;;;;5015531;28;20192;-72
2021/11/01 10:30:29;;;;;;;13.07;7.27;;;13.30;99.90;;;;;;5030694;28;20410;-72
2021/11/01 10:32:56;;;;;;;10.90;7.23;;;13.10;99.90;;;;;;5032679;28;20418;-71
2021/11/01 10:35:29;;;;;;;9.97;7.13;;;13.00;99.90;;;;;;5032171;28;20404;-72
2021/11/01 10:40:44;;;;;;;10.53;8.03;;;13.20;99.90;;;;;;5034342;28;20491;-75
2021/11/01 10:57:27;;;;;;;8.53;5.03;;;13.50;99.90;;;;;;5036015;28;20405;-70
2021/11/01 11:13:23;;;;;;;7.50;5.80;;;13.90;99.90;;;;;;5039883;28;20412;-72
2021/11/01 11:15:54;;;;;;;6.33;4.50;;;13.60;99.90;;;;;;5039264;28;20410;-71
2021/11/01 11:26:51;;;;;;;6.77;4.60;;;13.60;99.90;;;;;;5041324;28;20402;-72
2021/11/01 11:37:57;;;;;;;6.53;4.73;;;13.60;99.90;;;;;;5036417;28;20490;-70
2021/11/01 11:43:48;;;;;;;7.20;4.63;;;13.70;99.90;;;;;;5025043;28;20458;-73
2021/11/01 11:49:11;;;;;;;7.03;4.50;;;13.50;99.90;;;;;;5017010;28;20418;-72
2021/11/01 11:51:39;;;;;;;6.43;4.33;;;13.50;99.90;;;;;;5016651;28;20407;-74
2021/11/01 11:54:08;;;;;;;7.80;4.47;;;13.60;99.90;;;;;;5020991;28;20399;-72
2021/11/01 11:56:39;;;;;;;8.33;5.60;;;13.60;99.90;;;;;;5020240;28;20442;-72
2021/11/01 11:59:11;;;;;;;8.13;5.47;;;13.70;99.90;;;;;;5017579;28;20434;-73
2021/11/01 12:01:41;;;;;;;8.37;5.27;;;13.60;99.90;;;;;;5019852;28;20458;-71
2021/11/01 12:04:21;;;;;;;6.57;4.93;;;13.60;99.90;;;;;;5024444;28;20405;-71
2021/11/01 12:06:57;;;;;;;8.93;5.10;;;13.40;99.90;;;;;;5036179;28;20406;-71
2021/11/01 12:09:27;;;;;;;7.73;4.93;;;13.50;99.90;;;;;;5035591;28;20435;-72
2021/11/01 12:12:38;;;;;;;6.37;5.47;;;13.50;99.90;;;;;;5036420;28;20858;-71
2021/11/01 12:18:07;;;;;;;9.40;4.93;;;13.60;99.90;;;;;;5015753;28;20465;-71
2021/11/01 12:20:32;;;;;;;12.77;5.83;;;13.40;99.90;;;;;;5022401;28;20409;-71
2021/11/01 12:23:03;;;;;;;6.43;5.03;;;13.40;99.90;;;;;;5016269;28;20490;-70
2021/11/01 12:25:36;;;;;;;7.90;5.00;;;13.30;99.90;;;;;;5013749;28;20169;-72
2021/11/01 12:28:04;;;;;;;6.43;4.63;;;13.40;99.90;;;;;;5013479;28;20434;-71
2021/11/01 12:30:42;;;;;;;9.17;6.50;;;13.50;99.90;;;;;;5022452;28;20415;-71
2021/11/01 12:33:09;;;;;;;7.13;5.63;;;13.50;99.90;;;;;;5033349;28;20418;-72
2021/11/01 12:35:47;;;;;;;9.53;6.20;;;13.40;99.90;;;;;;5033207;28;20467;-72
2021/11/01 12:38:27;;;;;;;10.67;5.20;;;13.40;99.90;;;;;;5043594;28;20441;-74
2021/11/01 12:40:56;;;;;;;8.20;6.13;;;13.40;99.90;;;;;;5045959;28;20462;-72
2021/11/01 12:43:56;;;;;;;8.37;4.90;;;13.30;99.90;;;;;;5042846;28;20469;-71
2021/11/01 12:49:35;;;;;;;5.13;4.60;;;13.20;99.90;;;;;;5012515;28;20425;-70
2021/11/01 12:57:44;;;;;;;5.30;4.53;;;13.10;99.90;;;;;;5028052;28;20500;-69
2021/11/01 13:00:11;;;;;;;7.83;6.00;;;13.10;99.90;;;;;;5033567;28;20521;-70
2021/11/01 13:02:42;;;;;;;8.33;5.53;;;13.10;99.90;;;;;;5032899;28;20454;-70
2021/11/01 13:05:24;;;;;;;10.10;4.90;;;13.00;99.90;;;;;;5032811;28;20409;-70
2021/11/01 13:08:03;;;;;;;7.77;5.93;;;13.00;99.90;;;;;;5025917;28;20445;-70
2021/11/01 13:10:48;;;;;;;4.50;3.80;;;13.00;99.90;;;;;;5037171;28;20413;-71
2021/11/01 13:14:12;;;;;;;6.73;4.30;;;12.90;99.90;;;;;;5036430;28;20394;-70
2021/11/01 13:19:15;;;;;;;5.13;3.97;;;13.00;99.90;;;;;;5032723;28;20449;-72
2021/11/01 13:21:59;;;;;;;9.40;5.20;;;13.00;99.90;;;;;;5032594;28;20454;-70
2021/11/01 13:24:47;;;;;;;8.40;4.77;;;12.90;99.90;;;;;;5032230;28;20422;-71
2021/11/01 13:38:49;;;;;;;11.13;5.60;;;13.00;99.90;;;;;;5019378;28;20442;-71
2021/11/01 13:41:30;;;;;;;11.30;4.83;;;13.10;99.90;;;;;;5017676;28;20411;-71
2021/11/01 13:44:09;;;;;;;8.07;5.03;;;13.00;99.90;;;;;;5017081;28;20403;-70
2021/11/01 13:46:49;;;;;;;6.77;4.70;;;12.90;99.90;;;;;;5020013;28;20410;-71
2021/11/01 13:49:16;;;;;;;6.40;4.83;;;12.90;99.90;;;;;;5036054;28;20496;-70
2021/11/01 13:51:44;;;;;;;6.00;5.20;;;12.90;99.90;;;;;;5036706;28;20406;-70
2021/11/01 13:54:12;;;;;;;6.57;3.63;;;12.80;99.90;;;;;;5036553;28;20812;-71
2021/11/01 13:56:51;;;;;;;4.13;2.93;;;12.70;99.90;;;;;;5036179;28;20418;-71
2021/11/01 13:59:44;;;;;;;5.07;2.73;;;12.70;99.90;;;;;;5035923;28;20436;-71
2021/11/01 14:02:47;;;;;;;2.67;2.33;;;12.70;99.90;;;;;;5035264;28;20496;-70
2021/11/01 14:11:03;;;;;;;2.60;2.33;;;12.50;99.90;;;;;;5019091;28;20414;-70
2021/11/01 14:16:17;;;;;;;1.80;1.70;;;12.40;99.90;;;;;;5035837;28;20426;-71
2021/11/01 14:27:22;;;;;;;1.93;1.47;;;12.10;99.90;;;;;;5029968;28;20438;-72
2021/11/01 15:21:04;;;;;;;2.33;1.67;;;11.50;99.90;;;;;;5030973;28;20440;-71
2021/11/01 15:23:57;;;;;;;2.40;2.17;;;11.50;99.90;;;;;;5030554;28;20457;-70
2021/11/01 15:34:43;;;;;;;1.83;1.63;;;11.50;99.90;;;;;;5014651;28;20535;-69
2021/11/01 15:37:17;;;;;;;2.73;1.37;;;11.50;99.90;;;;;;5014698;28;20427;-70
2021/11/01 16:18:19;;;;;;;2.80;1.83;;;11.40;99.90;;;;;;5011780;28;20467;-70
2021/11/01 16:20:47;;;;;;;2.70;1.77;;;11.50;99.90;;;;;;5013687;28;20905;-70
2021/11/01 16:23:34;;;;;;;2.23;1.87;;;11.40;99.90;;;;;;5031197;28;20465;-70
2021/11/01 16:26:04;;;;;;;2.27;1.97;;;11.50;99.90;;;;;;5034097;28;20488;-70
2021/11/01 16:28:32;;;;;;;2.10;1.90;;;11.50;99.90;;;;;;5033851;28;20422;-71
2021/11/01 16:31:25;;;;;;;2.40;2.20;;;11.40;99.90;;;;;;5033487;28;20405;-71
2021/11/01 16:33:57;;;;;;;2.53;2.33;;;11.40;99.90;;;;;;5033756;28;20426;-71
2021/11/01 16:39:05;;;;;;;2.40;2.20;;;11.40;99.90;;;;;;5033056;28;20886;-70
2021/11/01 16:41:33;;;;;;;3.03;1.53;;;11.40;99.90;;;;;;5033226;28;20457;-70
2021/11/01 16:44:14;;;;;;;2.70;2.00;;;11.40;99.90;;;;;;5033208;28;20881;-70
2021/11/01 16:46:44;;;;;;;2.50;2.30;;;11.40;99.90;;;;;;5033122;28;20425;-70
2021/11/01 16:49:11;;;;;;;1.73;1.63;;;11.40;99.90;;;;;;5021057;28;20451;-70
2021/11/01 16:51:38;;;;;;;2.10;1.70;;;11.30;99.90;;;;;;5020637;28;20506;-71
2021/11/01 16:54:05;;;;;;;2.10;1.90;;;11.30;99.90;;;;;;5032963;28;20460;-70
2021/11/01 17:02:28;;;;;;;2.03;1.83;;;11.30;99.90;;;;;;5013394;28;20450;-70
2021/11/01 17:21:37;;;;;;;3.20;2.47;;;11.30;99.90;;;;;;5030534;28;20406;-70
2021/11/01 17:30:15;;;;;;;4.67;2.87;;;11.30;99.90;;;;;;5013483;28;20446;-71
2021/11/01 17:35:45;;;;;;;2.63;2.10;;;11.20;99.90;;;;;;5013209;28;20941;-70
2021/11/01 17:38:57;;;;;;;3.30;1.77;;;11.20;99.90;;;;;;5012430;28;20466;-70
2021/11/01 18:39:39;;;;;;;2.50;2.30;;;11.20;99.90;;;;;;5028948;28;20453;-75
2021/11/01 18:45:12;;;;;;;5.77;2.93;;;11.10;99.90;;;;;;5033012;28;20784;-70
2021/11/01 18:53:15;;;;;;;2.90;1.70;;;11.10;99.90;;;;;;5013932;28;20406;-71
2021/11/01 18:55:49;;;;;;;2.43;2.23;;;11.10;99.90;;;;;;5019495;28;20936;-71
2021/11/01 18:58:35;;;;;;;3.10;2.33;;;11.20;99.90;;;;;;5032451;28;20768;-71
2021/11/01 19:01:04;;;;;;;3.93;1.97;;;11.10;99.90;;;;;;5033344;28;20952;-71
2021/11/01 19:03:35;;;;;;;3.00;2.20;;;11.20;99.90;;;;;;5036180;28;20511;-71
2021/11/01 19:06:17;;;;;;;3.13;2.10;;;11.20;99.90;;;;;;5036215;28;20398;-71
2021/11/01 20:04:29;;;;;;;2.33;2.13;;;10.80;99.90;;;;;;5017363;28;20985;-71
2021/11/01 20:10:13;;;;;;;1.87;1.50;;;10.80;99.90;;;;;;5014625;28;20549;-71
2021/11/01 20:15:36;;;;;;;3.70;2.10;;;10.80;99.90;;;;;;5041403;28;20423;-70
2021/11/01 21:24:30;;;;;;;2.40;2.03;;;10.70;99.90;;;;;;5022263;28;20438;-71
2021/11/01 21:25:54;;;;;;;2.10;1.50;;;10.60;99.90;;;;;;5014976;28;20525;-71
2021/11/01 21:28:21;;;;;;;4.63;2.07;;;10.60;99.90;;;;;;5017076;28;20850;-71
2021/11/01 21:30:47;;;;;;;3.30;1.83;;;10.60;99.90;;;;;;5017607;28;20429;-72
2021/11/01 21:33:18;;;;;;;3.27;2.07;;;10.60;99.90;;;;;;5016136;28;20469;-72
2021/11/01 21:35:54;;;;;;;2.17;1.60;;;10.60;99.90;;;;;;5014067;28;20427;-73
2021/11/01 21:38:20;;;;;;;2.70;1.70;;;10.60;99.90;;;;;;5014653;28;20564;-73
2021/11/01 21:40:49;;;;;;;3.40;1.90;;;10.50;99.90;;;;;;5014678;28;20450;-73
2021/11/01 21:43:15;;;;;;;3.47;2.70;;;10.50;99.90;;;;;;5014967;28;20450;-71
2021/11/01 21:45:41;;;;;;;2.43;1.90;;;10.50;99.90;;;;;;5016253;28;20429;-72
2021/11/01 21:48:06;;;;;;;3.70;1.70;;;10.50;99.90;;;;;;5017472;28;20423;-71
2021/11/01 21:50:33;;;;;;;2.07;1.70;;;10.40;99.90;;;;;;5016917;28;20243;-72
2021/11/01 21:53:01;;;;;;;2.90;2.17;;;10.40;99.90;;;;;;5016066;28;20543;-71
2021/11/01 21:55:27;;;;;;;2.10;1.47;;;10.30;99.90;;;;;;5015451;28;20858;-71
2021/11/01 21:58:05;;;;;;;1.70;1.60;;;10.30;99.90;;;;;;5014235;28;20431;-72
2021/11/01 22:19:49;;;;;;;2.30;2.10;;;10.30;99.90;;;;;;5033661;28;20446;-72
2021/11/01 22:22:39;;;;;;;1.83;1.17;;;10.30;99.90;;;;;;5026226;28;20622;-71
2021/11/01 22:25:17;;;;;;;1.40;1.27;;;10.30;99.90;;;;;;5015906;28;20399;-72
2021/11/01 22:33:42;;;;;;;1.97;1.70;;;10.20;99.90;;;;;;5024867;28;20429;-72
2021/11/01 22:39:00;;;;;;;3.20;1.90;;;10.10;99.90;;;;;;5012002;28;20786;-73
2021/11/01 22:46:56;;;;;;;3.57;1.83;;;10.10;99.90;;;;;;5012517;28;20505;-70
2021/11/01 22:57:39;;;;;;;4.37;1.63;;;10.00;99.90;;;;;;5031456;28;20405;-71
2021/11/01 23:00:17;;;;;;;1.60;1.50;;;10.00;99.90;;;;;;5031908;28;20414;-69
2021/11/01 23:02:43;;;;;;;2.23;2.03;;;10.00;99.90;;;;;;5031984;28;20609;-71
2021/11/01 23:06:03;;;;;;;2.13;1.90;;;10.00;99.90;;;;;;5029471;28;20437;-71
2021/11/01 23:33:04;;;;;;;2.60;2.27;;;10.00;99.90;;;;;;5031783;28;20478;-71
2021/11/01 23:35:35;;;;;;;2.63;1.73;;;10.00;99.90;;;;;;5031199;28;20912;-70
2021/11/01 23:38:02;;;;;;;2.03;1.83;;;10.00;99.90;;;;;;5029891;28;20199;-72
2021/11/01 23:40:27;;;;;;;3.33;2.80;;;10.00;99.90;;;;;;5031122;28;20470;-71
2021/11/01 23:42:53;;;;;;;1.70;1.60;;;10.00;99.90;;;;;;5030967;28;20462;-71
2021/11/01 23:45:18;;;;;;;3.03;1.67;;;10.00;99.90;;;;;;5030909;28;20661;-71
2021/11/01 23:47:44;;;;;;;2.33;1.97;;;10.00;99.90;;;;;;5031855;28;20191;-72
2021/11/01 23:50:12;;;;;;;1.80;1.70;;;10.00;99.90;;;;;;5034912;28;20183;-71
2021/11/01 23:52:52;;;;;;;2.43;1.87;;;10.00;99.90;;;;;;5034825;28;20175;-71
2021/11/01 23:55:18;;;;;;;3.90;1.80;;;9.90;99.90;;;;;;5034482;28;20430;-70
2021/11/01 23:57:43;;;;;;;3.53;2.20;;;9.90;99.90;;;;;;5034220;28;20472;-72
